Terminal Aerodrome Forecast
Issued by NWS

Home | Current Version | Previous Version | Text Only | Print | Product List | Glossary On
Versions: 1 2 3 4 5 6 7 8 9 10 11 12
000
FTUS44 KLZK 131139
TAFLLQ
TAF
KLLQ 131139Z 1312/1412 27005KT P6SM SKC
     FM131600 22010KT P6SM SCT250
     FM131800 24012G22KT P6SM SCT250
     FM140000 24005KT P6SM SKC
     FM140900 32003KT P6SM SKC=

USA.gov is the U.S. government's official web portal to all federal, state and local government web resources and services.